Relief, North Carolina
Current Conditions -  °F | °C
As of 2:35 AM on Wednesday 26 Nov 2014 (Local Time) from K0A9 Reporting Station
Broken Clouds Broken Clouds  
Wind Chill:   Ceiling: 6000
Heat Index:   Visibility: 10mi
Dew Point:   Wind: 0mph
Humidity: 70%   Direction: NA
Pressure: 29.98"   Gusts: NA
Location:  35.955°N, 82.2044°W
Report Text: K0A9 260735Z AUTO 00000KT 10SM FEW050 BKN060 05/00 A2998 RMK
Loading
Personal Weather Stations






























Interactive Weather Map New forecast layout! Learn more

10-Day Weather Forecast

Advertisements
Track Severe Weather on mobile